Time;durP1;ratioP1;P1;durP2;ratioP2;P2;SDS_P1;SDS_P2;PMS_P1;PMS_P2;Temp;Humidity;BMP_temperature;BMP_pressure;BME280_temperature;BME280_humidity;BME280_pressure;Samples;Min_cycle;Max_cycle;Signal;HPM_P1;HPM_P2
2021/11/26 00:02:00;;;;;;;2.90;1.15;;;17.90;63.40;;;;;;10583882;28;20024;-59
2021/11/26 00:07:00;;;;;;;2.80;1.45;;;17.90;63.40;;;;;;10551046;28;20160;-59
2021/11/26 00:12:02;;;;;;;3.60;1.88;;;17.90;63.30;;;;;;10564605;28;20031;-58
2021/11/26 00:17:04;;;;;;;2.75;1.10;;;17.90;63.30;;;;;;10583171;28;20063;-59
2021/11/26 00:22:05;;;;;;;3.33;1.40;;;17.90;63.30;;;;;;10583012;28;20165;-58
2021/11/26 00:27:06;;;;;;;2.30;1.35;;;17.90;63.20;;;;;;10582898;28;20110;-58
2021/11/26 00:32:07;;;;;;;3.15;1.35;;;17.90;63.30;;;;;;10547500;28;20042;-59
2021/11/26 00:37:08;;;;;;;2.33;1.25;;;17.80;63.30;;;;;;10582619;28;20109;-59
2021/11/26 00:42:08;;;;;;;1.98;1.15;;;17.90;63.30;;;;;;10582129;28;20077;-59
2021/11/26 00:47:09;;;;;;;3.05;1.83;;;17.80;63.30;;;;;;10563485;28;20074;-60
2021/11/26 00:52:10;;;;;;;3.42;1.10;;;17.90;63.30;;;;;;10563698;28;20368;-60
2021/11/26 00:57:11;;;;;;;2.03;1.10;;;17.80;63.30;;;;;;10581631;28;20024;-59
2021/11/26 01:02:14;;;;;;;4.38;1.38;;;17.80;63.50;;;;;;10581517;28;20023;-59
2021/11/26 01:07:15;;;;;;;2.08;1.15;;;17.80;63.30;;;;;;10563324;28;20024;-59
2021/11/26 01:12:16;;;;;;;2.58;1.20;;;17.90;63.80;;;;;;10580494;28;20043;-59
2021/11/26 01:17:16;;;;;;;2.15;1.20;;;17.90;63.10;;;;;;10580437;28;20031;-60
2021/11/26 01:22:17;;;;;;;2.33;1.50;;;17.90;63.10;;;;;;10580467;28;20379;-59
2021/11/26 01:27:18;;;;;;;1.60;0.93;;;17.90;63.10;;;;;;10580515;28;20106;-59
2021/11/26 01:32:19;;;;;;;2.53;1.02;;;17.90;63.10;;;;;;10562057;28;20050;-59
2021/11/26 01:37:19;;;;;;;2.45;1.23;;;17.90;63.90;;;;;;10579038;28;20059;-58
2021/11/26 01:42:21;;;;;;;2.88;1.33;;;18.00;64.30;;;;;;10561589;28;20046;-59
2021/11/26 01:47:22;;;;;;;2.30;1.00;;;18.10;64.40;;;;;;10579364;28;20027;-58
2021/11/26 01:52:22;;;;;;;3.58;1.75;;;18.00;64.80;;;;;;10561389;28;20059;-59
2021/11/26 01:57:24;;;;;;;2.17;1.10;;;18.10;65.10;;;;;;10579556;28;20055;-58
2021/11/26 02:02:24;;;;;;;1.52;0.80;;;18.10;65.20;;;;;;10578971;28;20028;-57
2021/11/26 02:07:25;;;;;;;1.65;0.82;;;18.00;65.30;;;;;;10565811;28;20023;-59
2021/11/26 02:12:26;;;;;;;2.47;0.98;;;17.90;65.40;;;;;;10579214;28;20556;-59
2021/11/26 02:17:27;;;;;;;2.50;1.00;;;18.00;65.50;;;;;;10543883;28;20023;-57
2021/11/26 02:22:28;;;;;;;2.97;1.40;;;18.00;65.40;;;;;;10560867;28;20032;-59
2021/11/26 02:27:29;;;;;;;2.35;1.23;;;18.00;65.40;;;;;;10579131;28;20035;-58
2021/11/26 02:32:29;;;;;;;1.30;0.93;;;18.00;65.40;;;;;;10568864;28;20027;-59
2021/11/26 02:37:30;;;;;;;1.15;1.02;;;18.00;65.20;;;;;;10568710;28;20092;-59
2021/11/26 02:42:31;;;;;;;2.80;0.88;;;17.90;65.20;;;;;;10586999;28;20089;-58
2021/11/26 02:47:33;;;;;;;1.45;1.08;;;17.90;65.10;;;;;;10586984;28;20574;-59
2021/11/26 02:52:35;;;;;;;2.00;0.90;;;17.90;65.20;;;;;;10567834;28;20031;-58
2021/11/26 02:57:35;;;;;;;1.85;0.88;;;17.90;65.30;;;;;;10568313;28;20051;-59
2021/11/26 03:02:36;;;;;;;2.28;0.80;;;17.90;65.10;;;;;;10586413;28;20089;-60
2021/11/26 03:07:37;;;;;;;1.75;0.80;;;17.90;65.10;;;;;;10586126;28;20465;-58
2021/11/26 03:12:38;;;;;;;1.63;0.82;;;17.90;65.10;;;;;;10585833;28;20103;-59
2021/11/26 03:17:38;;;;;;;1.63;0.90;;;17.90;64.90;;;;;;10550386;28;20024;-58
2021/11/26 03:22:39;;;;;;;2.28;1.15;;;18.00;64.70;;;;;;10567143;28;20036;-59
2021/11/26 03:27:42;;;;;;;1.58;1.00;;;17.90;64.70;;;;;;10585388;28;20027;-59
2021/11/26 03:32:44;;;;;;;1.90;0.65;;;18.00;64.60;;;;;;10567025;28;20098;-59
2021/11/26 03:37:46;;;;;;;1.42;0.70;;;17.90;64.70;;;;;;10584717;28;20394;-58
2021/11/26 03:42:49;;;;;;;1.73;0.88;;;17.80;64.80;;;;;;10583443;28;20077;-57
2021/11/26 03:47:51;;;;;;;1.38;0.95;;;17.90;64.80;;;;;;10566433;28;20076;-58
2021/11/26 03:52:52;;;;;;;1.05;0.57;;;17.90;64.80;;;;;;10584418;28;20019;-59
2021/11/26 03:57:53;;;;;;;0.75;0.50;;;17.90;64.60;;;;;;10565968;28;20031;-59
2021/11/26 04:02:54;;;;;;;1.50;0.65;;;17.90;64.50;;;;;;10565913;28;20051;-58
2021/11/26 04:07:55;;;;;;;1.77;0.80;;;17.90;64.40;;;;;;10552692;28;20100;-59
2021/11/26 04:12:56;;;;;;;1.70;0.90;;;17.90;64.40;;;;;;10583435;28;20031;-59
2021/11/26 04:17:59;;;;;;;1.63;0.60;;;17.90;64.50;;;;;;10565192;28;20042;-57
2021/11/26 04:23:02;;;;;;;1.23;0.65;;;17.90;64.30;;;;;;10583055;28;20059;-59
2021/11/26 04:28:03;;;;;;;0.80;0.47;;;17.90;64.40;;;;;;10564805;28;20031;-59
2021/11/26 04:33:04;;;;;;;1.98;1.42;;;17.90;64.30;;;;;;10564568;28;20027;-58
2021/11/26 04:38:05;;;;;;;1.27;0.68;;;17.90;64.40;;;;;;10582363;28;20051;-58
2021/11/26 04:43:06;;;;;;;1.15;0.60;;;17.90;64.30;;;;;;10563521;28;20479;-58
2021/11/26 04:48:07;;;;;;;1.10;0.50;;;17.90;64.30;;;;;;10563502;28;20032;-58
2021/11/26 04:53:07;;;;;;;1.35;0.68;;;17.90;64.30;;;;;;10581608;28;20024;-59
2021/11/26 04:58:08;;;;;;;1.38;0.65;;;17.90;64.30;;;;;;10563571;28;20081;-58
2021/11/26 05:03:09;;;;;;;1.30;0.50;;;17.90;64.20;;;;;;10563295;28;20371;-57
2021/11/26 05:08:10;;;;;;;0.85;0.70;;;17.90;64.20;;;;;;10562757;28;20491;-58
2021/11/26 05:13:12;;;;;;;1.42;0.60;;;17.90;64.70;;;;;;10577053;28;20039;-58
2021/11/26 05:18:13;;;;;;;1.35;0.50;;;17.80;64.10;;;;;;10579919;28;20032;-57
2021/11/26 05:23:14;;;;;;;0.93;0.50;;;17.90;64.10;;;;;;10573111;28;20028;-59
2021/11/26 05:28:15;;;;;;;0.98;0.68;;;17.90;64.10;;;;;;10579291;28;20118;-56
2021/11/26 05:33:16;;;;;;;1.30;0.75;;;17.90;64.00;;;;;;10562080;28;20654;-58
2021/11/26 05:38:17;;;;;;;1.27;0.60;;;17.90;63.80;;;;;;10578134;28;20046;-54
2021/11/26 05:43:19;;;;;;;2.90;0.82;;;18.00;63.90;;;;;;10581145;28;20023;-58
2021/11/26 05:48:19;;;;;;;7.68;1.15;;;18.10;64.90;;;;;;10561255;28;20456;-58
2021/11/26 05:53:20;;;;;;;6.55;1.25;;;18.40;64.40;;;;;;10557839;28;20039;-57
2021/11/26 05:58:21;;;;;;;7.57;1.23;;;18.50;63.60;;;;;;10565715;28;20082;-58
2021/11/26 06:03:22;;;;;;;7.63;1.33;;;18.40;63.30;;;;;;10579231;28;20102;-57
2021/11/26 06:08:23;;;;;;;6.07;1.30;;;18.40;63.30;;;;;;10579056;28;20038;-57
2021/11/26 06:13:24;;;;;;;5.85;0.80;;;18.40;63.00;;;;;;10542736;28;20039;-56
2021/11/26 06:18:24;;;;;;;5.10;0.90;;;18.40;63.00;;;;;;10577527;28;20054;-55
2021/11/26 06:23:25;;;;;;;7.70;1.05;;;18.50;62.70;;;;;;10577854;28;20032;-56
2021/11/26 06:28:26;;;;;;;3.95;1.35;;;18.50;62.70;;;;;;10575786;28;20024;-56
2021/11/26 06:33:27;;;;;;;3.95;1.00;;;18.60;62.50;;;;;;10559385;28;20051;-55
2021/11/26 06:38:28;;;;;;;4.45;1.15;;;18.50;62.60;;;;;;10575123;28;20047;-56
2021/11/26 06:43:28;;;;;;;3.65;0.80;;;18.50;62.50;;;;;;10575979;28;20483;-55
2021/11/26 06:48:29;;;;;;;1.60;0.52;;;18.70;62.20;;;;;;10556249;28;20036;-57
2021/11/26 06:53:30;;;;;;;3.20;0.80;;;18.70;62.00;;;;;;10573224;28;20551;-57
2021/11/26 06:58:31;;;;;;;7.75;1.40;;;18.80;61.80;;;;;;10559908;28;20137;-56
2021/11/26 07:03:31;;;;;;;3.80;0.70;;;18.80;61.90;;;;;;10575757;28;20024;-57
2021/11/26 07:08:32;;;;;;;6.88;0.82;;;18.80;61.90;;;;;;10577145;28;20387;-54
2021/11/26 07:13:33;;;;;;;2.55;0.63;;;18.80;61.90;;;;;;10576016;28;20039;-56
2021/11/26 07:18:34;;;;;;;4.20;0.60;;;18.80;61.80;;;;;;10564789;28;20044;-56
2021/11/26 07:23:34;;;;;;;2.38;0.85;;;18.80;61.90;;;;;;10580413;28;20409;-55
2021/11/26 07:28:35;;;;;;;5.13;0.80;;;18.80;61.80;;;;;;10561518;28;20032;-57
2021/11/26 07:33:36;;;;;;;3.35;1.00;;;18.80;61.80;;;;;;10582910;28;20032;-57
2021/11/26 07:38:37;;;;;;;2.17;0.75;;;18.80;61.90;;;;;;10582779;28;20044;-57
2021/11/26 07:43:38;;;;;;;3.15;0.77;;;18.80;61.80;;;;;;10564832;28;20088;-58
2021/11/26 07:48:39;;;;;;;2.75;1.05;;;18.90;61.80;;;;;;10582647;28;20027;-56
2021/11/26 07:53:40;;;;;;;2.05;0.60;;;18.80;61.70;;;;;;10564614;28;20030;-57
2021/11/26 07:58:41;;;;;;;2.90;0.80;;;18.90;61.70;;;;;;10582475;28;20525;-57
2021/11/26 08:03:42;;;;;;;4.47;0.80;;;18.90;61.80;;;;;;10577405;28;20102;-57
2021/11/26 08:08:43;;;;;;;2.78;0.77;;;18.90;61.70;;;;;;10576352;28;20039;-56
2021/11/26 08:13:44;;;;;;;3.47;0.60;;;18.90;61.70;;;;;;10581741;28;20445;-57
2021/11/26 08:18:45;;;;;;;2.08;0.52;;;18.90;61.70;;;;;;10581600;28;20031;-57
2021/11/26 08:23:46;;;;;;;2.65;0.60;;;18.90;61.70;;;;;;10581864;28;20027;-58
2021/11/26 08:28:46;;;;;;;2.22;0.80;;;18.90;61.70;;;;;;10580501;28;20032;-57
2021/11/26 08:33:47;;;;;;;5.97;0.80;;;18.90;61.70;;;;;;10580674;28;20110;-58
2021/11/26 08:38:48;;;;;;;1.88;0.40;;;18.90;61.70;;;;;;10562453;28;20048;-57
2021/11/26 08:43:49;;;;;;;2.03;0.82;;;18.90;61.70;;;;;;10579114;28;20110;-56
2021/11/26 08:48:51;;;;;;;1.95;0.50;;;18.90;61.80;;;;;;10580372;28;20066;-57
2021/11/26 08:53:52;;;;;;;1.25;0.50;;;19.00;61.70;;;;;;10580186;28;20043;-57
2021/11/26 08:58:53;;;;;;;1.00;0.40;;;19.00;61.70;;;;;;10563560;28;20552;-58
2021/11/26 09:03:54;;;;;;;2.85;1.00;;;19.00;61.70;;;;;;10563277;28;20038;-58
2021/11/26 09:08:54;;;;;;;6.57;0.73;;;19.00;61.70;;;;;;10580980;28;20028;-57
2021/11/26 09:13:55;;;;;;;1.45;0.55;;;18.90;61.70;;;;;;10561510;28;20370;-57
2021/11/26 09:18:56;;;;;;;1.55;0.60;;;19.00;61.80;;;;;;10579412;28;20027;-57
2021/11/26 09:23:57;;;;;;;1.10;0.60;;;19.00;61.70;;;;;;10560404;28;20535;-57
2021/11/26 09:28:58;;;;;;;1.38;0.30;;;19.00;61.60;;;;;;10560665;28;20066;-57
2021/11/26 09:34:01;;;;;;;1.15;0.30;;;18.90;61.70;;;;;;10578724;28;20147;-56
2021/11/26 09:39:04;;;;;;;0.68;0.40;;;19.00;61.70;;;;;;10559705;28;20036;-57
2021/11/26 09:44:07;;;;;;;2.08;0.57;;;18.90;61.80;;;;;;10578922;28;20059;-57
2021/11/26 09:49:08;;;;;;;1.77;0.50;;;18.90;61.90;;;;;;10578772;28;20031;-57
2021/11/26 09:54:09;;;;;;;0.88;0.40;;;18.90;62.10;;;;;;10578510;28;20028;-57
2021/11/26 09:59:10;;;;;;;2.13;0.50;;;18.90;62.00;;;;;;10564726;28;20040;-57
2021/11/26 10:04:20;;;;;;;4.32;0.57;;;18.80;62.20;;;;;;10552089;28;20042;-57
2021/11/26 10:09:22;;;;;;;0.65;0.32;;;18.80;62.50;;;;;;10560302;28;20028;-57
2021/11/26 10:14:27;;;;;;;1.58;0.57;;;18.80;62.30;;;;;;10578588;28;20502;-57
2021/11/26 10:19:41;;;;;;;0.93;0.30;;;18.80;62.30;;;;;;10560317;28;20579;-57
2021/11/26 10:24:43;;;;;;;2.42;0.50;;;18.90;62.20;;;;;;10568078;28;20027;-57
2021/11/26 10:29:44;;;;;;;2.25;0.50;;;18.80;62.50;;;;;;10560535;28;20055;-57
2021/11/26 10:34:50;;;;;;;1.70;0.50;;;18.70;62.90;;;;;;10577859;28;20053;-57
2021/11/26 10:39:51;;;;;;;3.10;0.77;;;18.70;62.90;;;;;;10577678;28;20027;-56
2021/11/26 10:45:04;;;;;;;1.30;0.40;;;18.70;62.90;;;;;;10578035;28;20015;-58
2021/11/26 11:01:26;;;;;;;1.20;0.40;;;18.80;62.40;;;;;;10570396;28;20487;-57
2021/11/26 11:06:27;;;;;;;0.90;0.30;;;18.70;62.50;;;;;;10557539;28;20032;-57
2021/11/26 11:11:27;;;;;;;0.93;0.40;;;18.70;62.60;;;;;;10567419;28;20055;-57
2021/11/26 11:16:28;;;;;;;1.40;0.30;;;18.70;62.60;;;;;;10567183;28;20073;-57
2021/11/26 11:21:29;;;;;;;1.63;0.50;;;18.60;62.90;;;;;;10585484;28;20468;-57
2021/11/26 11:26:30;;;;;;;1.48;0.55;;;18.70;62.70;;;;;;10549888;28;20015;-57
2021/11/26 11:31:31;;;;;;;0.90;0.60;;;18.70;62.50;;;;;;10566695;28;20436;-56
2021/11/26 11:36:36;;;;;;;0.90;0.40;;;18.60;62.60;;;;;;10566171;28;20048;-57
2021/11/26 11:41:57;;;;;;;0.80;0.32;;;18.70;62.60;;;;;;10566468;28;20042;-57
2021/11/26 11:47:18;;;;;;;1.05;0.20;;;18.70;62.50;;;;;;10567192;28;20020;-57
2021/11/26 11:52:19;;;;;;;0.73;0.30;;;18.70;62.70;;;;;;10583717;28;20039;-57
2021/11/26 11:57:24;;;;;;;0.88;0.40;;;18.70;62.60;;;;;;10550812;28;20027;-58
2021/11/26 12:02:27;;;;;;;1.60;0.30;;;18.70;62.80;;;;;;10563204;28;20076;-57
2021/11/26 12:07:31;;;;;;;0.93;0.28;;;18.50;63.20;;;;;;10554008;28;20028;-55
2021/11/26 12:12:54;;;;;;;0.95;0.50;;;18.40;63.30;;;;;;10582386;28;20145;-56
2021/11/26 12:18:07;;;;;;;1.05;0.35;;;18.40;63.20;;;;;;10581702;28;20107;-57
2021/11/26 12:23:26;;;;;;;1.00;0.40;;;18.50;63.00;;;;;;10563633;28;20059;-57
2021/11/26 12:28:46;;;;;;;1.13;0.30;;;18.60;62.80;;;;;;10581450;28;20491;-57
2021/11/26 12:33:59;;;;;;;2.10;0.50;;;18.60;62.60;;;;;;10562854;28;20046;-57
2021/11/26 12:39:16;;;;;;;1.25;0.57;;;18.60;62.70;;;;;;10580793;28;20043;-57
2021/11/26 12:44:21;;;;;;;1.52;0.60;;;18.60;62.50;;;;;;10564844;28;20029;-57
2021/11/26 12:54:51;;;;;;;0.80;0.40;;;18.60;62.80;;;;;;10524792;28;20043;-57
2021/11/26 13:00:03;;;;;;;1.80;0.60;;;18.60;62.60;;;;;;10568125;28;20499;-57
2021/11/26 13:05:14;;;;;;;1.33;0.40;;;18.60;62.60;;;;;;10570312;28;20469;-57
2021/11/26 13:10:19;;;;;;;1.20;0.38;;;18.60;62.40;;;;;;10581105;28;20433;-57
2021/11/26 13:15:36;;;;;;;0.40;0.30;;;18.60;62.30;;;;;;10562874;28;20463;-58
2021/11/26 13:20:42;;;;;;;0.75;0.40;;;18.50;62.50;;;;;;10561939;28;20345;-57
2021/11/26 13:25:51;;;;;;;2.20;0.88;;;18.60;62.40;;;;;;10562468;28;20069;-57
2021/11/26 13:31:02;;;;;;;0.77;0.77;;;18.50;62.40;;;;;;10562351;28;20027;-57
2021/11/26 13:36:14;;;;;;;1.65;0.98;;;18.50;62.50;;;;;;10580295;28;20089;-57
2021/11/26 13:41:30;;;;;;;1.50;0.40;;;18.50;62.30;;;;;;10579438;28;20035;-56
2021/11/26 13:46:43;;;;;;;1.20;0.40;;;18.60;62.40;;;;;;10579580;28;20068;-57
2021/11/26 13:51:53;;;;;;;1.02;0.50;;;18.50;62.30;;;;;;10579676;28;20031;-56
2021/11/26 13:56:53;;;;;;;0.98;0.30;;;18.60;62.10;;;;;;10580119;28;20114;-57
2021/11/26 14:02:11;;;;;;;0.85;0.30;;;18.60;62.20;;;;;;10560101;28;20038;-56
2021/11/26 14:07:16;;;;;;;1.08;0.40;;;18.60;62.10;;;;;;10567686;28;20036;-57
2021/11/26 14:12:23;;;;;;;1.15;0.68;;;18.60;62.00;;;;;;10561364;28;20028;-57
2021/11/26 14:17:33;;;;;;;1.27;0.50;;;18.60;61.90;;;;;;10578862;28;20039;-57
2021/11/26 14:22:39;;;;;;;0.80;0.40;;;18.50;62.10;;;;;;10577464;28;20532;-58
2021/11/26 14:27:53;;;;;;;0.88;0.40;;;18.60;62.00;;;;;;10585669;28;20364;-58
2021/11/26 14:33:03;;;;;;;1.90;0.50;;;18.60;62.10;;;;;;10570066;28;20029;-57
2021/11/26 14:38:08;;;;;;;0.32;0.30;;;18.60;62.00;;;;;;10587484;28;20640;-57
2021/11/26 14:43:22;;;;;;;0.85;0.55;;;18.50;62.00;;;;;;10567892;28;20066;-57
2021/11/26 14:48:27;;;;;;;0.88;0.47;;;18.50;62.00;;;;;;10585539;28;20092;-57
2021/11/26 14:53:28;;;;;;;2.42;0.30;;;18.60;62.10;;;;;;10586628;28;20514;-55
2021/11/26 14:58:29;;;;;;;0.68;0.50;;;18.60;62.00;;;;;;10586807;28;20494;-58
2021/11/26 15:03:30;;;;;;;1.30;0.40;;;18.60;61.90;;;;;;10582493;28;20040;-57
2021/11/26 15:08:31;;;;;;;0.73;0.73;;;18.50;61.80;;;;;;10578966;28;20016;-58
2021/11/26 15:13:32;;;;;;;0.82;0.30;;;18.60;61.90;;;;;;10567272;28;20015;-56
2021/11/26 15:18:33;;;;;;;0.80;0.40;;;18.60;61.70;;;;;;10584914;28;20027;-57
2021/11/26 15:23:34;;;;;;;0.88;0.40;;;18.60;61.60;;;;;;10565847;28;20029;-57
2021/11/26 15:28:34;;;;;;;0.47;0.30;;;18.70;61.60;;;;;;10584417;28;20031;-57
2021/11/26 15:33:35;;;;;;;0.52;0.30;;;18.70;61.50;;;;;;10565566;28;20031;-57
2021/11/26 15:38:36;;;;;;;1.05;0.40;;;18.60;61.60;;;;;;10582077;28;20061;-55
2021/11/26 15:43:37;;;;;;;1.15;0.32;;;18.60;61.80;;;;;;10583164;28;20032;-57
2021/11/26 15:48:38;;;;;;;1.40;0.57;;;18.60;61.70;;;;;;10584048;28;20425;-58
2021/11/26 15:53:40;;;;;;;0.65;0.40;;;18.60;61.60;;;;;;10565823;28;20027;-57
2021/11/26 15:58:44;;;;;;;1.77;0.40;;;18.60;61.60;;;;;;10566343;28;20066;-56
2021/11/26 16:03:46;;;;;;;0.63;0.30;;;18.70;61.30;;;;;;10565113;28;20110;-57
2021/11/26 16:08:47;;;;;;;0.70;0.30;;;18.80;61.10;;;;;;10564086;28;20059;-57
2021/11/26 16:13:48;;;;;;;1.02;0.30;;;18.80;61.10;;;;;;10563633;28;20057;-56
2021/11/26 16:18:49;;;;;;;0.57;0.30;;;18.80;61.10;;;;;;10562353;28;20023;-57
2021/11/26 16:23:49;;;;;;;0.63;0.30;;;18.70;61.30;;;;;;10581675;28;20023;-57
2021/11/26 16:28:52;;;;;;;0.63;0.28;;;18.70;61.40;;;;;;10581970;28;20031;-56
2021/11/26 16:34:01;;;;;;;0.55;0.32;;;18.60;61.40;;;;;;10563708;28;21559;-58
2021/11/26 16:39:05;;;;;;;1.08;0.22;;;18.70;61.40;;;;;;10582570;28;20043;-57
2021/11/26 16:44:06;;;;;;;1.17;0.60;;;18.70;61.50;;;;;;10563879;28;20454;-57
2021/11/26 16:49:14;;;;;;;0.60;0.28;;;18.60;61.20;;;;;;10579197;28;20051;-58
2021/11/26 16:54:15;;;;;;;0.60;0.30;;;18.70;61.40;;;;;;10561897;28;20501;-55
2021/11/26 16:59:17;;;;;;;0.98;0.30;;;18.70;61.20;;;;;;10548394;28;20462;-58
2021/11/26 17:04:18;;;;;;;0.65;0.25;;;18.70;61.00;;;;;;10567315;28;20083;-57
2021/11/26 17:09:19;;;;;;;1.85;0.30;;;18.70;60.90;;;;;;10556423;28;20028;-57
2021/11/26 17:14:21;;;;;;;1.77;0.40;;;18.70;61.10;;;;;;10580059;28;20015;-57
2021/11/26 17:19:22;;;;;;;2.40;0.57;;;18.60;61.10;;;;;;10564333;28;20032;-59
2021/11/26 17:24:23;;;;;;;1.00;0.60;;;18.70;60.90;;;;;;10580769;28;20407;-58
2021/11/26 17:29:23;;;;;;;1.48;0.40;;;18.80;60.50;;;;;;10562820;28;20047;-59
2021/11/26 17:34:24;;;;;;;3.58;0.50;;;18.80;60.60;;;;;;10580355;28;20483;-58
2021/11/26 17:39:26;;;;;;;3.15;0.65;;;18.90;60.50;;;;;;10557019;28;20399;-58
2021/11/26 17:44:27;;;;;;;4.53;0.63;;;18.90;60.50;;;;;;10561453;28;20024;-59
2021/11/26 17:49:28;;;;;;;3.70;1.00;;;19.20;62.60;;;;;;10560240;28;20032;-59
2021/11/26 17:54:31;;;;;;;5.05;1.00;;;19.30;63.50;;;;;;10579175;28;20383;-60
2021/11/26 17:59:33;;;;;;;5.13;2.05;;;19.40;64.30;;;;;;10560616;28;20027;-60
2021/11/26 18:04:40;;;;;;;3.55;1.55;;;19.40;64.30;;;;;;10558616;28;20023;-58
2021/11/26 18:09:57;;;;;;;5.50;1.30;;;19.20;64.30;;;;;;10561255;28;20055;-59
2021/11/26 18:14:58;;;;;;;3.95;1.45;;;19.10;64.50;;;;;;10563984;28;20027;-59
2021/11/26 18:19:59;;;;;;;5.35;1.90;;;18.90;64.70;;;;;;10561497;28;20032;-59
2021/11/26 18:25:00;;;;;;;4.13;1.40;;;18.90;64.70;;;;;;10561710;28;20069;-58
2021/11/26 18:30:01;;;;;;;3.92;1.38;;;18.80;65.20;;;;;;10561187;28;20530;-60
2021/11/26 18:35:04;;;;;;;3.00;1.55;;;18.60;65.30;;;;;;10560360;28;20028;-59
2021/11/26 18:40:14;;;;;;;5.07;1.52;;;18.60;65.50;;;;;;10557234;28;20032;-58
2021/11/26 18:45:15;;;;;;;7.40;1.58;;;18.60;65.40;;;;;;10577889;28;20055;-57
2021/11/26 18:50:16;;;;;;;4.70;1.70;;;18.60;65.20;;;;;;10579027;28;20051;-59
2021/11/26 18:55:16;;;;;;;2.30;1.02;;;18.70;65.10;;;;;;10559523;28;20039;-57
2021/11/26 19:00:17;;;;;;;4.25;1.20;;;18.70;64.90;;;;;;10537788;28;20445;-57
2021/11/26 19:05:18;;;;;;;4.63;1.05;;;18.70;64.60;;;;;;10568861;28;20032;-58
2021/11/26 19:10:20;;;;;;;4.75;1.48;;;18.70;64.40;;;;;;10574604;28;20566;-57
2021/11/26 19:15:22;;;;;;;5.63;1.33;;;18.70;64.30;;;;;;10565836;28;20457;-57
2021/11/26 19:20:24;;;;;;;4.28;1.63;;;18.60;64.40;;;;;;10567914;28;20028;-57
2021/11/26 19:25:29;;;;;;;6.50;1.25;;;18.70;64.30;;;;;;10537042;28;20036;-57
2021/11/26 19:30:35;;;;;;;1.80;1.00;;;18.60;64.30;;;;;;10557689;28;20070;-56
2021/11/26 19:35:37;;;;;;;4.03;1.80;;;18.60;64.50;;;;;;10566044;28;20111;-57
2021/11/26 19:40:38;;;;;;;27.20;16.45;;;18.60;64.40;;;;;;10565440;28;20019;-57
2021/11/26 19:45:40;;;;;;;24.63;12.85;;;18.50;64.50;;;;;;10565845;28;20486;-57
2021/11/26 19:50:41;;;;;;;20.42;11.48;;;18.50;64.70;;;;;;10583929;28;20072;-55
2021/11/26 19:55:42;;;;;;;22.15;11.98;;;18.50;64.70;;;;;;10563905;28;20040;-57
2021/11/26 20:00:44;;;;;;;21.38;10.77;;;18.40;64.60;;;;;;10564085;28;20031;-57
2021/11/26 20:05:46;;;;;;;19.73;10.52;;;18.40;64.60;;;;;;10582339;28;20062;-57
2021/11/26 20:10:47;;;;;;;19.40;10.65;;;18.40;64.50;;;;;;10564906;28;20450;-57
2021/11/26 20:15:49;;;;;;;21.27;11.82;;;18.40;64.50;;;;;;10565712;28;20536;-56
2021/11/26 20:20:49;;;;;;;18.05;9.43;;;18.30;64.70;;;;;;10565293;28;20023;-58
2021/11/26 20:25:50;;;;;;;19.77;10.75;;;18.20;64.80;;;;;;10558277;28;20034;-56
2021/11/26 20:30:52;;;;;;;24.38;11.18;;;18.10;65.10;;;;;;10547792;28;20150;-57
2021/11/26 20:35:53;;;;;;;15.57;9.90;;;18.00;65.30;;;;;;10564732;28;20093;-57
2021/11/26 20:40:54;;;;;;;17.92;9.80;;;17.90;65.40;;;;;;10582716;28;20157;-57
2021/11/26 20:45:55;;;;;;;18.60;10.50;;;17.80;65.60;;;;;;10580605;28;20480;-57
2021/11/26 20:50:55;;;;;;;17.73;9.82;;;17.70;65.80;;;;;;10559399;28;20027;-57
2021/11/26 20:55:56;;;;;;;14.82;9.10;;;17.70;65.90;;;;;;10563735;28;20023;-56
2021/11/26 21:00:58;;;;;;;16.02;9.60;;;17.60;66.00;;;;;;10563763;28;20035;-56
2021/11/26 21:05:58;;;;;;;16.90;9.10;;;17.60;66.00;;;;;;10563395;28;20085;-57
2021/11/26 21:10:59;;;;;;;15.38;8.60;;;17.50;66.00;;;;;;10581352;28;20435;-57
2021/11/26 21:16:01;;;;;;;17.40;9.48;;;17.50;66.10;;;;;;10563227;28;20471;-57
2021/11/26 21:21:03;;;;;;;15.88;9.68;;;17.50;65.90;;;;;;10562928;28;20115;-56
2021/11/26 21:26:04;;;;;;;14.55;7.18;;;17.60;65.70;;;;;;10563218;28;20114;-57
2021/11/26 21:31:05;;;;;;;13.88;8.27;;;17.70;65.40;;;;;;10580811;28;20039;-56
2021/11/26 21:36:06;;;;;;;12.25;7.25;;;17.70;65.30;;;;;;10580155;28;20084;-57
2021/11/26 21:41:07;;;;;;;13.05;7.68;;;17.70;65.20;;;;;;10561985;28;20120;-57
2021/11/26 21:46:08;;;;;;;13.18;7.88;;;17.80;65.00;;;;;;10580182;28;20111;-57
2021/11/26 21:51:09;;;;;;;13.10;7.53;;;17.80;64.90;;;;;;10561912;28;20019;-57
2021/11/26 21:56:10;;;;;;;10.60;7.07;;;17.80;64.70;;;;;;10549145;28;20396;-57
2021/11/26 22:01:11;;;;;;;12.50;7.28;;;17.90;64.60;;;;;;10560186;28;20035;-57
2021/11/26 22:06:14;;;;;;;10.20;6.72;;;17.90;64.70;;;;;;10551352;28;20012;-57
2021/11/26 22:11:15;;;;;;;16.25;8.15;;;17.80;64.70;;;;;;10579477;28;20031;-58
2021/11/26 22:16:16;;;;;;;12.18;6.47;;;17.90;64.60;;;;;;10579370;28;20032;-57
2021/11/26 22:21:17;;;;;;;9.90;5.80;;;17.80;64.60;;;;;;10561033;28;20107;-58
2021/11/26 22:26:17;;;;;;;10.20;6.28;;;17.90;64.50;;;;;;10579210;28;20099;-57
2021/11/26 22:31:18;;;;;;;10.90;5.57;;;17.90;64.50;;;;;;10560898;28;20028;-57
2021/11/26 22:36:19;;;;;;;10.48;6.88;;;17.90;64.50;;;;;;10560250;28;20176;-57
2021/11/26 22:41:19;;;;;;;9.98;5.85;;;17.90;64.40;;;;;;10578851;28;20524;-57
2021/11/26 22:46:24;;;;;;;11.50;6.10;;;17.90;64.40;;;;;;10546526;28;20024;-58
2021/11/26 22:51:26;;;;;;;9.48;5.85;;;17.90;64.30;;;;;;10569472;28;20027;-57
2021/11/26 22:56:27;;;;;;;10.25;5.75;;;17.90;64.30;;;;;;10555020;28;20081;-56
2021/11/26 23:01:28;;;;;;;11.00;5.40;;;17.90;64.40;;;;;;10568448;28;20042;-58
2021/11/26 23:06:30;;;;;;;9.52;5.68;;;17.90;64.30;;;;;;10551244;28;20026;-57
2021/11/26 23:11:41;;;;;;;8.70;5.15;;;17.90;64.30;;;;;;10568246;28;20349;-57
2021/11/26 23:16:43;;;;;;;10.55;5.15;;;17.90;64.30;;;;;;10551082;28;20064;-56
2021/11/26 23:21:48;;;;;;;8.75;5.10;;;17.90;64.20;;;;;;10567658;28;20031;-57
2021/11/26 23:26:55;;;;;;;7.80;4.85;;;17.80;64.20;;;;;;10585780;28;20031;-57
2021/11/26 23:31:55;;;;;;;7.85;4.82;;;17.90;64.20;;;;;;10567041;28;20027;-58
2021/11/26 23:36:57;;;;;;;8.40;5.10;;;17.90;64.10;;;;;;10566783;28;20048;-58
2021/11/26 23:41:59;;;;;;;7.75;5.10;;;17.90;64.70;;;;;;10584507;28;20031;-55
2021/11/26 23:47:00;;;;;;;8.02;4.72;;;17.90;64.10;;;;;;10549836;28;20020;-57
2021/11/26 23:52:01;;;;;;;9.60;4.78;;;17.90;64.20;;;;;;10566510;28;20027;-57
2021/11/26 23:57:02;;;;;;;9.65;4.75;;;17.90;64.10;;;;;;10564233;28;20040;-57
